sensor_id;sensor_type;location;lat;lon;timestamp;pressure;altitude;pressure_sealevel;temperature;humidity
75555;BME280;66087;53.126;17.960;2023-05-09T00:00:41;102062.73;;;7.53;58.10
75555;BME280;66087;53.126;17.960;2023-05-09T00:03:13;102060.58;;;7.54;57.80
75555;BME280;66087;53.126;17.960;2023-05-09T00:05:39;102060.25;;;7.53;57.73
75555;BME280;66087;53.126;17.960;2023-05-09T00:08:07;102059.73;;;7.47;58.41
75555;BME280;66087;53.126;17.960;2023-05-09T00:10:33;102059.23;;;7.39;58.73
75555;BME280;66087;53.126;17.960;2023-05-09T00:13:01;102059.02;;;7.32;59.23
75555;BME280;66087;53.126;17.960;2023-05-09T00:15:27;102054.61;;;7.26;59.74
75555;BME280;66087;53.126;17.960;2023-05-09T00:17:54;102056.47;;;7.19;59.00
75555;BME280;66087;53.126;17.960;2023-05-09T00:20:21;102053.94;;;7.17;58.95
75555;BME280;66087;53.126;17.960;2023-05-09T00:22:48;102057.53;;;7.19;58.62
75555;BME280;66087;53.126;17.960;2023-05-09T00:25:14;102054.39;;;7.20;58.84
75555;BME280;66087;53.126;17.960;2023-05-09T00:27:41;102053.87;;;7.17;59.35
75555;BME280;66087;53.126;17.960;2023-05-09T00:30:08;102053.59;;;7.12;59.53
75555;BME280;66087;53.126;17.960;2023-05-09T00:32:35;102053.69;;;7.07;59.58
75555;BME280;66087;53.126;17.960;2023-05-09T00:35:02;102051.36;;;7.04;59.83
75555;BME280;66087;53.126;17.960;2023-05-09T00:37:30;102051.96;;;7.03;59.96
75555;BME280;66087;53.126;17.960;2023-05-09T00:39:56;102051.13;;;6.99;59.95
75555;BME280;66087;53.126;17.960;2023-05-09T00:42:23;102049.05;;;6.97;59.83
75555;BME280;66087;53.126;17.960;2023-05-09T00:44:50;102048.69;;;6.94;60.20
75555;BME280;66087;53.126;17.960;2023-05-09T00:47:17;102052.02;;;6.92;60.38
75555;BME280;66087;53.126;17.960;2023-05-09T00:49:43;102047.55;;;6.89;60.82
75555;BME280;66087;53.126;17.960;2023-05-09T00:52:10;102048.39;;;6.86;60.91
75555;BME280;66087;53.126;17.960;2023-05-09T00:54:37;102030.19;;;6.71;61.04
75555;BME280;66087;53.126;17.960;2023-05-09T00:57:04;102047.32;;;6.80;60.89
75555;BME280;66087;53.126;17.960;2023-05-09T00:59:31;102047.42;;;6.78;60.88
75555;BME280;66087;53.126;17.960;2023-05-09T01:01:57;102045.71;;;6.74;62.21
75555;BME280;66087;53.126;17.960;2023-05-09T01:04:24;102042.59;;;6.70;61.89
75555;BME280;66087;53.126;17.960;2023-05-09T01:07:03;102045.90;;;6.67;61.14
75555;BME280;66087;53.126;17.960;2023-05-09T01:09:42;102044.49;;;6.63;61.55
75555;BME280;66087;53.126;17.960;2023-05-09T01:12:28;102039.55;;;6.60;61.20
75555;BME280;66087;53.126;17.960;2023-05-09T01:15:09;102038.71;;;6.57;60.64
75555;BME280;66087;53.126;17.960;2023-05-09T01:17:49;102036.51;;;6.53;60.72
75555;BME280;66087;53.126;17.960;2023-05-09T01:20:31;102037.28;;;6.53;60.60
75555;BME280;66087;53.126;17.960;2023-05-09T01:23:16;102037.85;;;6.54;60.63
75555;BME280;66087;53.126;17.960;2023-05-09T01:25:56;102036.45;;;6.51;60.62
75555;BME280;66087;53.126;17.960;2023-05-09T01:31:25;102043.57;;;6.42;60.95
75555;BME280;66087;53.126;17.960;2023-05-09T01:33:57;102039.40;;;6.39;62.12
75555;BME280;66087;53.126;17.960;2023-05-09T01:36:29;102039.52;;;6.32;61.96
75555;BME280;66087;53.126;17.960;2023-05-09T01:38:58;102041.81;;;6.26;61.66
75555;BME280;66087;53.126;17.960;2023-05-09T01:41:29;102043.42;;;6.23;61.11
75555;BME280;66087;53.126;17.960;2023-05-09T01:43:59;102041.84;;;6.21;61.70
75555;BME280;66087;53.126;17.960;2023-05-09T01:46:28;102037.71;;;6.23;61.99
75555;BME280;66087;53.126;17.960;2023-05-09T01:48:56;102036.97;;;6.18;62.35
75555;BME280;66087;53.126;17.960;2023-05-09T01:51:24;102037.43;;;6.10;62.23
75555;BME280;66087;53.126;17.960;2023-05-09T01:53:53;102040.16;;;6.05;62.82
75555;BME280;66087;53.126;17.960;2023-05-09T01:56:23;102037.15;;;6.00;62.84
75555;BME280;66087;53.126;17.960;2023-05-09T01:58:51;102041.05;;;5.98;62.91
75555;BME280;66087;53.126;17.960;2023-05-09T02:01:19;102032.99;;;5.94;63.17
75555;BME280;66087;53.126;17.960;2023-05-09T02:03:48;102029.18;;;5.90;63.40
75555;BME280;66087;53.126;17.960;2023-05-09T02:06:19;102030.80;;;5.87;63.56
75555;BME280;66087;53.126;17.960;2023-05-09T02:08:50;102026.23;;;5.83;63.90
75555;BME280;66087;53.126;17.960;2023-05-09T02:11:17;102022.46;;;5.78;64.02
75555;BME280;66087;53.126;17.960;2023-05-09T02:13:43;102020.77;;;5.75;64.09
75555;BME280;66087;53.126;17.960;2023-05-09T02:16:10;102023.35;;;5.72;63.47
75555;BME280;66087;53.126;17.960;2023-05-09T02:18:39;102022.94;;;5.68;64.49
75555;BME280;66087;53.126;17.960;2023-05-09T02:21:07;102018.80;;;5.63;65.35
75555;BME280;66087;53.126;17.960;2023-05-09T02:23:36;102019.67;;;5.62;65.26
75555;BME280;66087;53.126;17.960;2023-05-09T02:26:02;102019.58;;;5.59;64.74
75555;BME280;66087;53.126;17.960;2023-05-09T02:28:29;102022.09;;;5.53;64.46
75555;BME280;66087;53.126;17.960;2023-05-09T02:30:58;102024.11;;;5.47;64.52
75555;BME280;66087;53.126;17.960;2023-05-09T02:33:28;102020.95;;;5.42;64.68
75555;BME280;66087;53.126;17.960;2023-05-09T02:35:56;102023.00;;;5.39;64.65
75555;BME280;66087;53.126;17.960;2023-05-09T02:38:23;102018.69;;;5.39;64.72
75555;BME280;66087;53.126;17.960;2023-05-09T02:40:50;102021.74;;;5.40;64.99
75555;BME280;66087;53.126;17.960;2023-05-09T02:43:18;102021.34;;;5.37;65.12
75555;BME280;66087;53.126;17.960;2023-05-09T02:45:44;102020.03;;;5.35;65.49
75555;BME280;66087;53.126;17.960;2023-05-09T02:48:11;102017.62;;;5.34;65.88
75555;BME280;66087;53.126;17.960;2023-05-09T02:50:39;102014.48;;;5.35;66.07
75555;BME280;66087;53.126;17.960;2023-05-09T02:53:08;102015.70;;;5.34;66.12
75555;BME280;66087;53.126;17.960;2023-05-09T02:55:35;102012.19;;;5.35;66.55
75555;BME280;66087;53.126;17.960;2023-05-09T02:58:02;102013.98;;;5.36;66.85
75555;BME280;66087;53.126;17.960;2023-05-09T03:00:31;102013.52;;;5.36;66.75
75555;BME280;66087;53.126;17.960;2023-05-09T03:02:57;102013.52;;;5.39;66.89
75555;BME280;66087;53.126;17.960;2023-05-09T03:05:25;102015.33;;;5.40;67.32
75555;BME280;66087;53.126;17.960;2023-05-09T03:07:52;102012.48;;;5.37;67.39
75555;BME280;66087;53.126;17.960;2023-05-09T03:10:18;102016.96;;;5.38;67.77
75555;BME280;66087;53.126;17.960;2023-05-09T03:12:45;102016.64;;;5.40;67.60
75555;BME280;66087;53.126;17.960;2023-05-09T03:15:13;102018.46;;;5.41;67.80
75555;BME280;66087;53.126;17.960;2023-05-09T03:17:42;102019.30;;;5.44;67.69
75555;BME280;66087;53.126;17.960;2023-05-09T03:20:09;102019.14;;;5.46;67.65
75555;BME280;66087;53.126;17.960;2023-05-09T03:22:38;102021.23;;;5.49;67.68
75555;BME280;66087;53.126;17.960;2023-05-09T03:25:07;102017.20;;;5.51;67.76
75555;BME280;66087;53.126;17.960;2023-05-09T03:27:34;102015.31;;;5.52;67.52
75555;BME280;66087;53.126;17.960;2023-05-09T03:30:01;102017.98;;;5.54;67.19
75555;BME280;66087;53.126;17.960;2023-05-09T03:32:28;102018.89;;;5.57;67.09
75555;BME280;66087;53.126;17.960;2023-05-09T03:34:54;102023.38;;;5.59;66.83
75555;BME280;66087;53.126;17.960;2023-05-09T03:37:22;102025.29;;;5.61;66.88
75555;BME280;66087;53.126;17.960;2023-05-09T03:39:51;102028.34;;;5.63;66.69
75555;BME280;66087;53.126;17.960;2023-05-09T03:42:18;102027.17;;;5.68;66.32
75555;BME280;66087;53.126;17.960;2023-05-09T03:44:48;102027.39;;;5.72;66.63
75555;BME280;66087;53.126;17.960;2023-05-09T03:47:16;102028.05;;;5.74;66.44
75555;BME280;66087;53.126;17.960;2023-05-09T03:49:43;102030.67;;;5.74;66.56
75555;BME280;66087;53.126;17.960;2023-05-09T03:52:10;102034.38;;;5.76;66.84
75555;BME280;66087;53.126;17.960;2023-05-09T03:54:36;102035.61;;;5.76;66.89
75555;BME280;66087;53.126;17.960;2023-05-09T03:57:03;102032.58;;;5.78;66.78
75555;BME280;66087;53.126;17.960;2023-05-09T03:59:31;102034.69;;;5.84;66.70
75555;BME280;66087;53.126;17.960;2023-05-09T04:01:58;102032.60;;;5.91;67.02
75555;BME280;66087;53.126;17.960;2023-05-09T04:04:25;102034.48;;;5.98;67.07
75555;BME280;66087;53.126;17.960;2023-05-09T04:06:53;102040.55;;;6.05;67.21
75555;BME280;66087;53.126;17.960;2023-05-09T04:09:22;102038.09;;;6.11;66.98
75555;BME280;66087;53.126;17.960;2023-05-09T04:11:51;102036.91;;;6.16;67.08
75555;BME280;66087;53.126;17.960;2023-05-09T04:14:18;102035.94;;;6.23;67.18
75555;BME280;66087;53.126;17.960;2023-05-09T04:16:47;102032.36;;;6.30;67.16
75555;BME280;66087;53.126;17.960;2023-05-09T04:19:14;102032.90;;;6.39;67.10
75555;BME280;66087;53.126;17.960;2023-05-09T04:21:40;102033.02;;;6.49;67.47
75555;BME280;66087;53.126;17.960;2023-05-09T04:24:07;102031.31;;;6.61;67.17
75555;BME280;66087;53.126;17.960;2023-05-09T04:26:39;102035.59;;;6.74;67.00
75555;BME280;66087;53.126;17.960;2023-05-09T04:29:17;102035.59;;;6.87;66.57
75555;BME280;66087;53.126;17.960;2023-05-09T04:31:53;102036.78;;;7.01;66.75
75555;BME280;66087;53.126;17.960;2023-05-09T04:34:28;102035.63;;;7.11;66.84
75555;BME280;66087;53.126;17.960;2023-05-09T04:37:00;102038.45;;;7.23;66.58
75555;BME280;66087;53.126;17.960;2023-05-09T04:39:27;102040.19;;;7.31;66.47
75555;BME280;66087;53.126;17.960;2023-05-09T04:42:02;102043.11;;;7.40;66.55
75555;BME280;66087;53.126;17.960;2023-05-09T04:44:30;102042.91;;;7.48;66.32
75555;BME280;66087;53.126;17.960;2023-05-09T04:46:57;102043.34;;;7.58;66.18
75555;BME280;66087;53.126;17.960;2023-05-09T04:49:26;102042.96;;;7.65;66.29
75555;BME280;66087;53.126;17.960;2023-05-09T04:51:54;102038.36;;;7.74;66.00
75555;BME280;66087;53.126;17.960;2023-05-09T04:54:28;102036.50;;;7.82;66.18
75555;BME280;66087;53.126;17.960;2023-05-09T04:56:56;102038.77;;;7.90;65.73
75555;BME280;66087;53.126;17.960;2023-05-09T04:59:24;102025.42;;;7.92;65.52
75555;BME280;66087;53.126;17.960;2023-05-09T05:14:25;102043.95;;;8.48;64.59
75555;BME280;66087;53.126;17.960;2023-05-09T05:25:47;102045.67;;;8.85;64.08
75555;BME280;66087;53.126;17.960;2023-05-09T05:28:51;102045.20;;;8.94;63.73
75555;BME280;66087;53.126;17.960;2023-05-09T05:31:24;102046.08;;;9.05;63.17
75555;BME280;66087;53.126;17.960;2023-05-09T05:34:40;102043.23;;;9.16;62.96
75555;BME280;66087;53.126;17.960;2023-05-09T05:37:16;102044.75;;;9.30;62.73
75555;BME280;66087;53.126;17.960;2023-05-09T05:39:52;102040.17;;;9.39;62.42
75555;BME280;66087;53.126;17.960;2023-05-09T05:42:42;102039.11;;;9.47;62.18
75555;BME280;66087;53.126;17.960;2023-05-09T05:45:14;102038.08;;;9.57;61.80
75555;BME280;66087;53.126;17.960;2023-05-09T05:48:36;102037.41;;;9.71;61.56
75555;BME280;66087;53.126;17.960;2023-05-09T05:51:09;102039.49;;;9.81;61.27
75555;BME280;66087;53.126;17.960;2023-05-09T05:53:35;102038.15;;;9.91;61.01
75555;BME280;66087;53.126;17.960;2023-05-09T05:56:03;102037.70;;;10.00;61.03
75555;BME280;66087;53.126;17.960;2023-05-09T06:02:07;102040.79;;;10.23;60.15
75555;BME280;66087;53.126;17.960;2023-05-09T06:05:44;102039.92;;;10.37;60.08
75555;BME280;66087;53.126;17.960;2023-05-09T06:08:16;102030.27;;;10.41;59.95
75555;BME280;66087;53.126;17.960;2023-05-09T06:10:52;102037.89;;;10.58;59.51
75555;BME280;66087;53.126;17.960;2023-05-09T06:13:22;102034.31;;;10.68;59.48
75555;BME280;66087;53.126;17.960;2023-05-09T06:16:19;102028.23;;;10.82;58.95
75555;BME280;66087;53.126;17.960;2023-05-09T06:18:49;102031.73;;;10.92;57.86
75555;BME280;66087;53.126;17.960;2023-05-09T06:21:37;102032.27;;;11.03;57.45
75555;BME280;66087;53.126;17.960;2023-05-09T06:24:04;102032.75;;;11.14;57.71
75555;BME280;66087;53.126;17.960;2023-05-09T06:26:33;102030.09;;;11.24;57.53
75555;BME280;66087;53.126;17.960;2023-05-09T06:28:59;102026.41;;;11.33;56.98
75555;BME280;66087;53.126;17.960;2023-05-09T06:31:26;102022.95;;;11.41;56.49
75555;BME280;66087;53.126;17.960;2023-05-09T06:33:56;102023.48;;;11.50;56.26
75555;BME280;66087;53.126;17.960;2023-05-09T06:36:25;102021.51;;;11.57;56.53
75555;BME280;66087;53.126;17.960;2023-05-09T06:38:52;102020.30;;;11.67;56.40
75555;BME280;66087;53.126;17.960;2023-05-09T06:41:21;102015.67;;;11.73;55.73
75555;BME280;66087;53.126;17.960;2023-05-09T06:43:53;102014.56;;;11.86;55.38
75555;BME280;66087;53.126;17.960;2023-05-09T06:46:21;102016.80;;;11.97;55.30
75555;BME280;66087;53.126;17.960;2023-05-09T06:49:07;102015.03;;;12.08;54.96
75555;BME280;66087;53.126;17.960;2023-05-09T06:52:20;102012.42;;;12.24;54.08
75555;BME280;66087;53.126;17.960;2023-05-09T06:54:55;102003.95;;;12.33;52.39
75555;BME280;66087;53.126;17.960;2023-05-09T06:57:26;102009.50;;;12.47;52.94
75555;BME280;66087;53.126;17.960;2023-05-09T07:08:58;101999.55;;;12.82;51.45
75555;BME280;66087;53.126;17.960;2023-05-09T07:11:48;101991.50;;;12.91;52.32
75555;BME280;66087;53.126;17.960;2023-05-09T07:14:15;101991.02;;;12.99;51.79
75555;BME280;66087;53.126;17.960;2023-05-09T07:16:44;101986.42;;;13.06;50.25
75555;BME280;66087;53.126;17.960;2023-05-09T07:19:33;101980.89;;;13.14;49.96
75555;BME280;66087;53.126;17.960;2023-05-09T07:22:09;101986.10;;;13.23;49.64
75555;BME280;66087;53.126;17.960;2023-05-09T07:24:40;101980.62;;;13.31;49.69
75555;BME280;66087;53.126;17.960;2023-05-09T07:27:09;101975.54;;;13.36;49.33
75555;BME280;66087;53.126;17.960;2023-05-09T07:29:35;101971.84;;;13.44;48.18
75555;BME280;66087;53.126;17.960;2023-05-09T07:32:03;101968.15;;;13.50;48.67
75555;BME280;66087;53.126;17.960;2023-05-09T07:34:39;101969.29;;;13.58;48.94
75555;BME280;66087;53.126;17.960;2023-05-09T07:37:26;101966.05;;;13.65;46.52
75555;BME280;66087;53.126;17.960;2023-05-09T07:39:54;101954.45;;;13.73;44.61
75555;BME280;66087;53.126;17.960;2023-05-09T07:42:26;101958.63;;;13.83;43.94
75555;BME280;66087;53.126;17.960;2023-05-09T07:44:58;101960.08;;;13.90;43.75
75555;BME280;66087;53.126;17.960;2023-05-09T07:47:27;101957.84;;;13.96;42.52
75555;BME280;66087;53.126;17.960;2023-05-09T07:49:54;101957.95;;;14.02;42.31
75555;BME280;66087;53.126;17.960;2023-05-09T07:52:21;101955.68;;;14.04;41.55
75555;BME280;66087;53.126;17.960;2023-05-09T07:55:02;101956.09;;;14.15;40.75
75555;BME280;66087;53.126;17.960;2023-05-09T07:57:29;101948.17;;;14.18;37.29
75555;BME280;66087;53.126;17.960;2023-05-09T07:59:56;101952.30;;;14.20;38.89
75555;BME280;66087;53.126;17.960;2023-05-09T08:02:23;101951.87;;;14.26;39.75
75555;BME280;66087;53.126;17.960;2023-05-09T08:05:13;101946.36;;;14.31;38.09
75555;BME280;66087;53.126;17.960;2023-05-09T08:07:49;101936.69;;;14.33;36.47
75555;BME280;66087;53.126;17.960;2023-05-09T08:10:17;101943.27;;;14.40;36.58
75555;BME280;66087;53.126;17.960;2023-05-09T08:12:44;101942.45;;;14.46;36.34
75555;BME280;66087;53.126;17.960;2023-05-09T08:15:20;101936.73;;;14.48;36.27
75555;BME280;66087;53.126;17.960;2023-05-09T08:17:49;101930.64;;;14.47;35.36
75555;BME280;66087;53.126;17.960;2023-05-09T08:20:19;101934.34;;;14.52;36.56
75555;BME280;66087;53.126;17.960;2023-05-09T08:22:46;101929.98;;;14.59;37.24
75555;BME280;66087;53.126;17.960;2023-05-09T08:25:26;101923.14;;;14.64;36.68
75555;BME280;66087;53.126;17.960;2023-05-09T08:28:15;101927.82;;;14.73;36.66
75555;BME280;66087;53.126;17.960;2023-05-09T08:30:42;101924.29;;;14.82;36.57
75555;BME280;66087;53.126;17.960;2023-05-09T08:33:09;101918.81;;;14.89;37.04
75555;BME280;66087;53.126;17.960;2023-05-09T08:35:36;101913.67;;;14.95;37.22
75555;BME280;66087;53.126;17.960;2023-05-09T08:38:23;101911.59;;;15.06;36.49
75555;BME280;66087;53.126;17.960;2023-05-09T08:40:50;101907.70;;;15.12;35.29
75555;BME280;66087;53.126;17.960;2023-05-09T08:43:32;101904.94;;;15.13;35.07
75555;BME280;66087;53.126;17.960;2023-05-09T08:46:23;101897.36;;;15.19;34.77
75555;BME280;66087;53.126;17.960;2023-05-09T08:48:53;101897.45;;;15.24;34.33
75555;BME280;66087;53.126;17.960;2023-05-09T08:51:23;101893.77;;;15.30;35.09
75555;BME280;66087;53.126;17.960;2023-05-09T08:53:50;101887.98;;;15.36;33.60
75555;BME280;66087;53.126;17.960;2023-05-09T08:56:20;101880.90;;;15.39;32.84
75555;BME280;66087;53.126;17.960;2023-05-09T08:58:49;101886.61;;;15.38;33.03
75555;BME280;66087;53.126;17.960;2023-05-09T09:01:16;101888.10;;;15.40;32.99
75555;BME280;66087;53.126;17.960;2023-05-09T09:03:43;101887.40;;;15.45;33.75
75555;BME280;66087;53.126;17.960;2023-05-09T09:06:16;101881.70;;;15.53;33.35
75555;BME280;66087;53.126;17.960;2023-05-09T09:08:44;101880.81;;;15.59;33.58
75555;BME280;66087;53.126;17.960;2023-05-09T09:11:13;101878.79;;;15.65;33.60
75555;BME280;66087;53.126;17.960;2023-05-09T09:13:44;101886.67;;;15.72;33.32
75555;BME280;66087;53.126;17.960;2023-05-09T09:16:18;101881.52;;;15.76;33.39
75555;BME280;66087;53.126;17.960;2023-05-09T09:18:47;101878.55;;;15.81;33.60
75555;BME280;66087;53.126;17.960;2023-05-09T09:21:16;101879.33;;;15.86;31.97
75555;BME280;66087;53.126;17.960;2023-05-09T09:23:46;101883.02;;;15.91;32.94
75555;BME280;66087;53.126;17.960;2023-05-09T09:26:46;101882.72;;;15.95;32.04
75555;BME280;66087;53.126;17.960;2023-05-09T09:29:17;101880.44;;;15.96;32.08
75555;BME280;66087;53.126;17.960;2023-05-09T09:31:47;101872.70;;;15.99;32.03
75555;BME280;66087;53.126;17.960;2023-05-09T09:34:20;101867.94;;;16.03;31.42
75555;BME280;66087;53.126;17.960;2023-05-09T09:36:55;101874.80;;;16.10;32.04
75555;BME280;66087;53.126;17.960;2023-05-09T09:39:25;101870.59;;;16.18;32.53
75555;BME280;66087;53.126;17.960;2023-05-09T09:42:10;101870.77;;;16.31;32.42
75555;BME280;66087;53.126;17.960;2023-05-09T09:44:40;101864.92;;;16.38;32.21
75555;BME280;66087;53.126;17.960;2023-05-09T09:47:32;101863.20;;;16.47;31.18
75555;BME280;66087;53.126;17.960;2023-05-09T09:50:11;101859.98;;;16.48;30.55
75555;BME280;66087;53.126;17.960;2023-05-09T09:52:49;101852.44;;;16.49;30.97
75555;BME280;66087;53.126;17.960;2023-05-09T09:55:35;101849.38;;;16.53;30.81
75555;BME280;66087;53.126;17.960;2023-05-09T09:58:02;101849.14;;;16.49;29.54
75555;BME280;66087;53.126;17.960;2023-05-09T10:00:29;101843.76;;;16.42;29.86
75555;BME280;66087;53.126;17.960;2023-05-09T10:02:58;101838.64;;;16.43;29.93
75555;BME280;66087;53.126;17.960;2023-05-09T10:05:27;101834.10;;;16.43;30.44
75555;BME280;66087;53.126;17.960;2023-05-09T10:07:58;101832.54;;;16.52;31.12
75555;BME280;66087;53.126;17.960;2023-05-09T10:10:27;101828.86;;;16.64;30.42
75555;BME280;66087;53.126;17.960;2023-05-09T10:12:58;101820.13;;;16.70;29.48
75555;BME280;66087;53.126;17.960;2023-05-09T10:15:27;101822.50;;;16.69;29.89
75555;BME280;66087;53.126;17.960;2023-05-09T10:17:58;101813.48;;;16.77;29.29
75555;BME280;66087;53.126;17.960;2023-05-09T10:20:27;101810.30;;;16.82;29.23
75555;BME280;66087;53.126;17.960;2023-05-09T10:22:56;101810.48;;;16.90;29.45
75555;BME280;66087;53.126;17.960;2023-05-09T10:25:30;101808.42;;;16.98;29.68
75555;BME280;66087;53.126;17.960;2023-05-09T10:27:59;101808.30;;;17.07;29.36
75555;BME280;66087;53.126;17.960;2023-05-09T10:30:30;101799.52;;;17.11;29.10
75555;BME280;66087;53.126;17.960;2023-05-09T10:33:08;101801.70;;;17.22;29.34
75555;BME280;66087;53.126;17.960;2023-05-09T10:35:43;101799.91;;;17.36;29.12
75555;BME280;66087;53.126;17.960;2023-05-09T10:38:12;101794.55;;;17.43;28.61
75555;BME280;66087;53.126;17.960;2023-05-09T10:41:04;101792.53;;;17.49;28.38
75555;BME280;66087;53.126;17.960;2023-05-09T10:43:33;101789.73;;;17.54;28.21
75555;BME280;66087;53.126;17.960;2023-05-09T10:46:03;101786.48;;;17.60;28.03
75555;BME280;66087;53.126;17.960;2023-05-09T10:48:31;101792.07;;;17.66;27.26
75555;BME280;66087;53.126;17.960;2023-05-09T10:51:02;101793.30;;;17.71;28.11
75555;BME280;66087;53.126;17.960;2023-05-09T10:53:42;101783.95;;;17.76;27.64
75555;BME280;66087;53.126;17.960;2023-05-09T10:56:24;101775.39;;;17.71;26.76
75555;BME280;66087;53.126;17.960;2023-05-09T10:58:52;101772.29;;;17.62;27.51
75555;BME280;66087;53.126;17.960;2023-05-09T11:01:29;101768.09;;;17.67;27.91
75555;BME280;66087;53.126;17.960;2023-05-09T11:04:09;101758.05;;;17.72;27.74
75555;BME280;66087;53.126;17.960;2023-05-09T11:06:47;101762.23;;;17.85;27.98
75555;BME280;66087;53.126;17.960;2023-05-09T11:09:35;101762.66;;;18.01;28.17
75555;BME280;66087;53.126;17.960;2023-05-09T11:12:17;101757.17;;;18.16;27.51
75555;BME280;66087;53.126;17.960;2023-05-09T11:14:46;101750.39;;;18.26;27.36
75555;BME280;66087;53.126;17.960;2023-05-09T11:17:31;101754.55;;;18.40;28.08
75555;BME280;66087;53.126;17.960;2023-05-09T11:20:02;101750.24;;;18.58;27.33
75555;BME280;66087;53.126;17.960;2023-05-09T11:22:38;101746.33;;;18.71;27.39
75555;BME280;66087;53.126;17.960;2023-05-09T11:25:09;101741.95;;;18.80;27.13
75555;BME280;66087;53.126;17.960;2023-05-09T11:27:42;101731.48;;;18.88;26.81
75555;BME280;66087;53.126;17.960;2023-05-09T11:30:11;101731.27;;;18.93;26.64
75555;BME280;66087;53.126;17.960;2023-05-09T11:32:44;101728.26;;;18.88;26.21
75555;BME280;66087;53.126;17.960;2023-05-09T11:35:36;101728.56;;;18.91;26.55
75555;BME280;66087;53.126;17.960;2023-05-09T11:38:19;101719.11;;;18.99;25.49
75555;BME280;66087;53.126;17.960;2023-05-09T11:40:51;101723.44;;;19.04;25.72
75555;BME280;66087;53.126;17.960;2023-05-09T11:43:48;101718.81;;;19.16;26.00
75555;BME280;66087;53.126;17.960;2023-05-09T11:46:17;101716.24;;;19.27;26.34
75555;BME280;66087;53.126;17.960;2023-05-09T11:48:49;101705.38;;;19.43;26.30
75555;BME280;66087;53.126;17.960;2023-05-09T11:51:17;101694.95;;;19.48;25.10
75555;BME280;66087;53.126;17.960;2023-05-09T11:54:04;101699.02;;;19.42;24.80
75555;BME280;66087;53.126;17.960;2023-05-09T11:57:24;101678.17;;;19.20;24.62
75555;BME280;66087;53.126;17.960;2023-05-09T11:59:53;101696.27;;;19.39;25.14
75555;BME280;66087;53.126;17.960;2023-05-09T12:02:23;101681.75;;;19.53;25.62
75555;BME280;66087;53.126;17.960;2023-05-09T12:04:50;101681.88;;;19.78;25.67
75555;BME280;66087;53.126;17.960;2023-05-09T12:07:17;101681.98;;;20.02;25.38
75555;BME280;66087;53.126;17.960;2023-05-09T12:09:50;101676.80;;;20.19;25.28
75555;BME280;66087;53.126;17.960;2023-05-09T12:12:17;101673.00;;;20.35;25.05
75555;BME280;66087;53.126;17.960;2023-05-09T12:14:47;101674.23;;;20.49;24.78
75555;BME280;66087;53.126;17.960;2023-05-09T12:17:14;101679.02;;;20.56;24.44
75555;BME280;66087;53.126;17.960;2023-05-09T12:19:43;101673.40;;;20.58;24.20
75555;BME280;66087;53.126;17.960;2023-05-09T12:22:09;101671.98;;;20.62;24.61
75555;BME280;66087;53.126;17.960;2023-05-09T12:24:50;101664.83;;;20.65;24.58
75555;BME280;66087;53.126;17.960;2023-05-09T12:27:17;101658.20;;;20.73;24.11
75555;BME280;66087;53.126;17.960;2023-05-09T12:29:44;101655.10;;;20.74;24.32
75555;BME280;66087;53.126;17.960;2023-05-09T12:32:14;101650.52;;;20.86;24.68
75555;BME280;66087;53.126;17.960;2023-05-09T12:34:42;101654.42;;;21.05;24.01
75555;BME280;66087;53.126;17.960;2023-05-09T12:37:17;101648.34;;;21.19;23.85
75555;BME280;66087;53.126;17.960;2023-05-09T12:40:17;101642.41;;;21.17;23.29
75555;BME280;66087;53.126;17.960;2023-05-09T12:43:08;101632.23;;;21.17;23.55
75555;BME280;66087;53.126;17.960;2023-05-09T12:53:11;101623.20;;;21.55;23.10
75555;BME280;66087;53.126;17.960;2023-05-09T12:55:39;101605.58;;;21.93;21.97
75555;BME280;66087;53.126;17.960;2023-05-09T12:58:30;101611.25;;;23.49;22.00
75555;BME280;66087;53.126;17.960;2023-05-09T13:05:34;101614.91;;;27.02;19.78
75555;BME280;66087;53.126;17.960;2023-05-09T13:13:04;101588.46;;;28.97;18.06
75555;BME280;66087;53.126;17.960;2023-05-09T13:17:10;101592.98;;;29.63;18.57
75555;BME280;66087;53.126;17.960;2023-05-09T13:27:12;101583.08;;;31.81;15.99
75555;BME280;66087;53.126;17.960;2023-05-09T13:29:56;101565.01;;;31.94;16.58
75555;BME280;66087;53.126;17.960;2023-05-09T13:33:15;101566.12;;;32.54;15.93
75555;BME280;66087;53.126;17.960;2023-05-09T13:36:52;101572.52;;;33.00;15.46
75555;BME280;66087;53.126;17.960;2023-05-09T13:39:54;101565.14;;;33.36;15.19
75555;BME280;66087;53.126;17.960;2023-05-09T13:43:26;101554.16;;;33.58;15.12
75555;BME280;66087;53.126;17.960;2023-05-09T13:47:00;101549.70;;;34.16;13.88
75555;BME280;66087;53.126;17.960;2023-05-09T13:50:25;101545.46;;;34.40;13.42
75555;BME280;66087;53.126;17.960;2023-05-09T13:54:01;101531.89;;;34.30;13.73
75555;BME280;66087;53.126;17.960;2023-05-09T13:56:30;101536.18;;;34.63;12.99
75555;BME280;66087;53.126;17.960;2023-05-09T14:12:52;101520.38;;;36.15;11.83
75555;BME280;66087;53.126;17.960;2023-05-09T14:19:54;101508.04;;;35.80;11.24
75555;BME280;66087;53.126;17.960;2023-05-09T14:23:48;101514.67;;;35.91;10.91
75555;BME280;66087;53.126;17.960;2023-05-09T14:26:44;101507.66;;;36.31;10.89
